createdAt,value
2019-03-18T00:00:09.863Z,3.77
2019-03-18T00:02:42.536Z,3.77
2019-03-18T00:05:13.547Z,3.73
2019-03-18T00:07:44.628Z,3.69
2019-03-18T00:10:15.644Z,3.70
2019-03-18T00:12:46.611Z,3.73
2019-03-18T00:15:17.700Z,3.75
2019-03-18T00:17:48.658Z,3.79
2019-03-18T00:20:19.832Z,3.76
2019-03-18T00:22:50.821Z,3.86
2019-03-18T00:25:22.691Z,3.89
2019-03-18T00:27:54.690Z,3.86
2019-03-18T00:30:25.315Z,3.88
2019-03-18T00:32:56.311Z,3.91
2019-03-18T00:35:27.235Z,4.00
2019-03-18T00:37:58.160Z,4.04
2019-03-18T00:40:29.099Z,4.01
2019-03-18T00:42:59.988Z,4.16
2019-03-18T00:45:30.925Z,4.17
2019-03-18T00:48:01.863Z,4.26
2019-03-18T00:50:32.807Z,4.27
2019-03-18T00:53:03.743Z,4.32
2019-03-18T00:55:35.714Z,4.29
2019-03-18T00:58:06.648Z,4.28
2019-03-18T01:00:37.585Z,4.32
2019-03-18T01:03:08.506Z,4.39
2019-03-18T01:05:39.469Z,4.36
2019-03-18T01:08:10.461Z,4.38
2019-03-18T01:10:41.457Z,4.36
2019-03-18T01:13:12.442Z,4.30
2019-03-18T01:15:43.515Z,4.36
2019-03-18T01:18:14.562Z,4.29
2019-03-18T01:20:45.580Z,4.33
2019-03-18T01:23:16.559Z,4.39
2019-03-18T01:25:48.341Z,4.42
2019-03-18T01:28:20.426Z,4.43
2019-03-18T01:30:52.515Z,4.41
2019-03-18T01:33:23.578Z,4.37
2019-03-18T01:35:54.527Z,4.38
2019-03-18T01:38:25.531Z,4.36
2019-03-18T01:40:56.490Z,4.32
2019-03-18T01:43:27.492Z,4.30
2019-03-18T01:45:58.442Z,4.32
2019-03-18T01:48:29.379Z,4.29
2019-03-18T01:51:00.319Z,4.33
2019-03-18T01:53:31.244Z,4.27
2019-03-18T01:56:02.200Z,4.23
2019-03-18T01:58:33.135Z,4.27
2019-03-18T02:01:04.076Z,4.35
2019-03-18T02:03:35.077Z,4.31
2019-03-18T02:06:06.090Z,4.31
2019-03-18T02:08:36.987Z,4.36
2019-03-18T02:11:07.939Z,4.28
2019-03-18T02:13:38.866Z,4.34
2019-03-18T02:16:09.927Z,4.33
2019-03-18T02:18:40.864Z,4.44
2019-03-18T02:21:11.845Z,4.32
2019-03-18T02:23:43.803Z,4.43
2019-03-18T02:26:15.708Z,4.40
2019-03-18T02:28:47.424Z,4.37
2019-03-18T02:31:19.586Z,4.46
2019-03-18T02:33:50.558Z,4.46
2019-03-18T02:36:21.554Z,4.43
2019-03-18T02:38:52.437Z,4.42
2019-03-18T02:41:23.429Z,4.43
2019-03-18T02:43:55.410Z,4.44
2019-03-18T02:46:26.366Z,4.44
2019-03-18T02:48:57.331Z,4.38
2019-03-18T02:51:28.274Z,4.37
2019-03-18T02:53:59.207Z,4.34
2019-03-18T02:56:30.169Z,4.45
2019-03-18T02:59:01.076Z,4.38
2019-03-18T03:01:32.280Z,4.40
2019-03-18T03:04:04.612Z,4.29
2019-03-18T03:06:35.875Z,4.23
2019-03-18T03:09:07.648Z,4.20
2019-03-18T03:11:38.704Z,4.15
2019-03-18T03:14:10.059Z,4.12
2019-03-18T03:16:41.416Z,4.19
2019-03-18T03:19:12.344Z,4.23
2019-03-18T03:21:43.405Z,4.20
2019-03-18T03:24:14.540Z,4.21
2019-03-18T03:26:47.328Z,4.18
2019-03-18T03:29:18.307Z,4.24
2019-03-18T03:31:49.387Z,4.19
2019-03-18T03:34:20.395Z,4.15
2019-03-18T03:36:51.514Z,4.10
2019-03-18T03:39:23.096Z,4.08
2019-03-18T03:41:54.161Z,4.07
2019-03-18T03:44:25.715Z,4.01
2019-03-18T03:46:56.793Z,4.07
2019-03-18T03:49:28.367Z,4.03
2019-03-18T03:52:00.007Z,4.04
2019-03-18T03:54:31.443Z,4.03
2019-03-18T03:57:02.897Z,4.01
2019-03-18T03:59:33.886Z,3.97
2019-03-18T04:02:04.834Z,3.89
2019-03-18T04:04:36.033Z,3.95
2019-03-18T04:07:07.049Z,3.94
2019-03-18T04:09:37.930Z,3.91
2019-03-18T04:12:08.944Z,4.01
2019-03-18T04:14:40.026Z,3.95
2019-03-18T04:17:10.963Z,3.91
2019-03-18T04:19:41.917Z,3.93
2019-03-18T04:22:12.874Z,3.95
2019-03-18T04:24:43.892Z,3.95
2019-03-18T04:27:15.805Z,3.91
2019-03-18T04:29:46.798Z,3.92
2019-03-18T04:32:17.796Z,3.89
2019-03-18T04:34:49.814Z,3.90
2019-03-18T04:37:20.771Z,3.92
2019-03-18T04:39:51.746Z,3.95
2019-03-18T04:42:22.768Z,4.04
2019-03-18T04:44:53.842Z,3.95
2019-03-18T04:47:24.825Z,4.06
2019-03-18T04:49:55.852Z,3.93
2019-03-18T04:52:26.810Z,3.98
2019-03-18T04:54:57.742Z,4.05
2019-03-18T04:57:28.664Z,4.18
2019-03-18T05:00:00.784Z,4.23
2019-03-18T05:02:31.831Z,4.24
2019-03-18T05:05:02.824Z,4.21
2019-03-18T05:07:33.766Z,4.37
2019-03-18T05:10:07.219Z,4.40
2019-03-18T05:12:37.626Z,4.41
2019-03-18T05:15:12.831Z,4.59
2019-03-18T05:17:45.409Z,4.63
2019-03-18T05:20:16.390Z,4.84
2019-03-18T05:22:47.338Z,4.80
2019-03-18T05:25:20.593Z,4.97
2019-03-18T05:27:52.460Z,5.03
2019-03-18T05:30:26.047Z,5.10
2019-03-18T05:32:57.091Z,5.14
2019-03-18T05:35:30.799Z,5.12
2019-03-18T05:38:01.728Z,5.22
2019-03-18T05:40:32.779Z,5.50
2019-03-18T05:43:07.562Z,5.45
2019-03-18T05:45:38.973Z,5.65
2019-03-18T05:48:12.927Z,5.56
2019-03-18T05:50:44.153Z,5.63
2019-03-18T05:53:16.713Z,5.66
2019-03-18T05:55:47.866Z,5.68
2019-03-18T05:58:18.955Z,5.69
2019-03-18T06:00:49.954Z,5.67
2019-03-18T06:06:31.270Z,5.87
2019-03-18T06:09:02.202Z,5.95
2019-03-18T06:11:33.574Z,6.12
2019-03-18T06:14:04.685Z,6.23
2019-03-18T06:16:35.691Z,6.21
2019-03-18T06:19:06.712Z,6.63
2019-03-18T06:21:37.673Z,7.11
2019-03-18T06:24:08.706Z,7.29
2019-03-18T06:26:39.669Z,7.04
2019-03-18T06:29:12.688Z,7.23
2019-03-18T06:31:43.641Z,7.12
2019-03-18T06:34:14.575Z,6.97
2019-03-18T06:36:45.617Z,6.96
2019-03-18T06:39:16.523Z,7.15
2019-03-18T06:41:47.488Z,7.13
2019-03-18T06:44:18.464Z,7.17
2019-03-18T06:46:49.393Z,7.41
2019-03-18T06:49:20.194Z,7.48
2019-03-18T06:51:51.174Z,7.47
2019-03-18T06:54:22.086Z,7.56
2019-03-18T06:56:53.186Z,7.77
2019-03-18T06:59:24.002Z,8.19
2019-03-18T07:01:54.829Z,8.26
2019-03-18T07:04:25.759Z,8.06
2019-03-18T07:06:56.620Z,8.05
2019-03-18T07:09:27.629Z,8.06
2019-03-18T07:11:58.591Z,8.33
2019-03-18T07:14:29.526Z,8.53
2019-03-18T07:17:00.487Z,8.55
2019-03-18T07:19:31.608Z,8.60
2019-03-18T07:22:02.613Z,8.78
2019-03-18T07:24:33.611Z,8.82
2019-03-18T07:27:04.597Z,8.76
2019-03-18T07:29:36.560Z,8.88
2019-03-18T07:32:07.806Z,8.87
2019-03-18T07:34:38.671Z,8.91
2019-03-18T07:37:09.716Z,9.12
2019-03-18T07:39:40.659Z,9.49
2019-03-18T07:42:11.572Z,9.52
2019-03-18T07:44:42.678Z,9.44
2019-03-18T07:47:13.656Z,9.75
2019-03-18T07:49:44.618Z,9.82
2019-03-18T07:52:16.552Z,9.83
2019-03-18T07:54:47.585Z,10.19
2019-03-18T07:57:18.684Z,10.08
2019-03-18T07:59:49.619Z,10.08
2019-03-18T08:02:20.576Z,10.15
2019-03-18T08:04:51.551Z,10.24
2019-03-18T08:07:22.691Z,10.26
2019-03-18T08:09:53.784Z,10.45
2019-03-18T08:12:24.845Z,10.52
2019-03-18T08:14:55.858Z,10.71
2019-03-18T08:17:26.794Z,10.92
2019-03-18T08:19:57.830Z,11.14
2019-03-18T08:22:28.955Z,11.05
2019-03-18T08:24:59.828Z,11.39
2019-03-18T08:27:30.785Z,11.61
2019-03-18T08:30:05.589Z,11.46
2019-03-18T08:32:36.584Z,11.39
2019-03-18T08:35:07.729Z,11.70
2019-03-18T08:37:38.871Z,11.91
2019-03-18T08:40:11.224Z,11.79
2019-03-18T08:42:42.185Z,12.15
2019-03-18T08:45:13.782Z,11.82
2019-03-18T08:47:44.819Z,11.99
2019-03-18T08:50:17.189Z,12.16
2019-03-18T08:52:48.117Z,12.21
2019-03-18T08:55:19.116Z,12.43
2019-03-18T08:57:50.154Z,12.27
2019-03-18T09:00:21.158Z,12.11
2019-03-18T09:02:56.190Z,12.51
2019-03-18T09:05:26.032Z,12.76
2019-03-18T09:07:57.012Z,13.00
2019-03-18T09:10:28.056Z,13.16
2019-03-18T09:12:59.423Z,13.18
2019-03-18T09:15:30.410Z,13.04
2019-03-18T09:18:01.436Z,13.06
2019-03-18T09:20:32.364Z,13.00
2019-03-18T09:23:03.405Z,13.00
2019-03-18T09:25:36.460Z,12.98
2019-03-18T09:28:07.456Z,13.26
2019-03-18T09:30:39.361Z,13.29
2019-03-18T09:33:10.340Z,13.31
2019-03-18T09:35:41.316Z,13.49
2019-03-18T09:38:12.317Z,13.48
2019-03-18T09:40:43.231Z,13.59
2019-03-18T09:43:15.864Z,13.74
2019-03-18T09:45:46.874Z,14.00
2019-03-18T09:48:17.917Z,14.09
2019-03-18T09:50:48.996Z,14.18
2019-03-18T09:53:20.124Z,14.17
2019-03-18T09:55:51.207Z,14.33
2019-03-18T09:58:22.436Z,14.16
2019-03-18T10:00:55.519Z,14.39
2019-03-18T10:03:26.154Z,14.75
2019-03-18T10:05:57.105Z,14.69
2019-03-18T10:08:29.151Z,14.77
2019-03-18T10:11:00.458Z,14.88
2019-03-18T10:13:31.403Z,14.79
2019-03-18T10:16:04.428Z,14.70
2019-03-18T10:18:35.404Z,14.52
2019-03-18T10:21:06.528Z,14.63
2019-03-18T10:23:37.648Z,14.62
2019-03-18T10:26:08.589Z,14.76
2019-03-18T10:28:39.644Z,14.91
2019-03-18T10:31:11.557Z,15.03
2019-03-18T10:33:44.854Z,15.12
2019-03-18T10:36:17.601Z,15.17
2019-03-18T10:38:48.672Z,15.14
2019-03-18T10:41:19.633Z,15.15
2019-03-18T10:43:50.695Z,15.16
2019-03-18T10:46:21.670Z,15.18
2019-03-18T10:48:52.627Z,15.52
2019-03-18T10:51:24.648Z,15.71
2019-03-18T10:53:55.670Z,15.60
2019-03-18T10:56:26.631Z,15.56
2019-03-18T10:58:57.643Z,15.73
2019-03-18T11:01:28.604Z,15.84
2019-03-18T11:03:59.697Z,15.82
2019-03-18T11:06:30.589Z,15.96
2019-03-18T11:09:01.559Z,16.06
2019-03-18T11:11:33.984Z,16.02
2019-03-18T11:14:06.073Z,16.06
2019-03-18T11:16:37.058Z,16.06
2019-03-18T11:19:08.120Z,16.20
2019-03-18T11:21:41.223Z,16.16
2019-03-18T11:24:12.273Z,16.19
2019-03-18T11:26:44.295Z,16.30
2019-03-18T11:29:15.322Z,16.42
2019-03-18T11:31:47.179Z,16.53
2019-03-18T11:34:18.332Z,16.76
2019-03-18T11:36:49.320Z,16.75
2019-03-18T11:39:20.336Z,16.70
2019-03-18T11:41:51.274Z,16.64
2019-03-18T11:44:22.250Z,16.61
2019-03-18T11:46:53.380Z,16.66
2019-03-18T11:49:24.300Z,16.77
2019-03-18T11:51:55.475Z,17.02
2019-03-18T11:54:26.438Z,17.03
2019-03-18T11:56:57.442Z,16.82
2019-03-18T11:59:28.489Z,16.89
2019-03-18T12:01:59.378Z,16.95
2019-03-18T12:04:32.738Z,17.11
2019-03-18T12:07:03.146Z,17.09
2019-03-18T12:09:34.272Z,17.16
2019-03-18T12:12:05.267Z,17.24
2019-03-18T12:14:36.585Z,17.05
2019-03-18T12:17:07.564Z,17.23
2019-03-18T12:19:38.696Z,17.13
2019-03-18T12:22:09.691Z,17.15
2019-03-18T12:24:40.642Z,17.32
2019-03-18T12:27:11.637Z,17.22
2019-03-18T12:29:42.649Z,17.22
2019-03-18T12:32:14.466Z,17.17
2019-03-18T12:34:45.480Z,17.21
2019-03-18T12:37:16.322Z,17.22
2019-03-18T12:39:47.503Z,17.32
2019-03-18T12:42:18.431Z,17.34
2019-03-18T12:44:49.381Z,17.45
2019-03-18T12:47:20.392Z,17.48
2019-03-18T12:49:51.405Z,17.34
2019-03-18T12:52:22.384Z,17.28
2019-03-18T12:54:53.440Z,17.38
2019-03-18T12:57:24.574Z,17.35
2019-03-18T12:59:55.531Z,17.38
2019-03-18T13:02:26.563Z,17.34
2019-03-18T13:04:57.545Z,17.60
2019-03-18T13:07:28.585Z,17.66
2019-03-18T13:09:59.439Z,17.53
2019-03-18T13:12:30.353Z,17.53
2019-03-18T13:15:01.348Z,17.48
2019-03-18T13:17:32.329Z,17.48
2019-03-18T13:20:03.494Z,17.40
2019-03-18T13:22:34.514Z,17.47
2019-03-18T13:25:08.154Z,17.44
2019-03-18T13:27:38.471Z,17.39
2019-03-18T13:30:18.600Z,17.38
2019-03-18T13:32:50.422Z,17.37
2019-03-18T13:35:24.402Z,17.34
2019-03-18T13:37:55.356Z,17.36
2019-03-18T13:40:26.428Z,17.38
2019-03-18T13:42:57.348Z,17.25
2019-03-18T13:45:28.300Z,17.38
2019-03-18T13:47:59.338Z,17.40
2019-03-18T13:50:30.291Z,17.42
2019-03-18T13:53:01.199Z,17.47
2019-03-18T13:55:32.219Z,17.51
2019-03-18T13:58:03.240Z,17.48
2019-03-18T14:00:34.307Z,17.47
2019-03-18T14:03:05.199Z,17.41
2019-03-18T14:05:36.254Z,17.44
2019-03-18T14:08:07.193Z,17.39
2019-03-18T14:10:38.262Z,17.37
2019-03-18T14:13:09.351Z,17.41
2019-03-18T14:15:40.489Z,17.40
2019-03-18T14:18:11.526Z,17.39
2019-03-18T14:20:42.552Z,17.40
2019-03-18T14:23:13.576Z,17.40
2019-03-18T14:25:45.659Z,17.34
2019-03-18T14:28:16.842Z,17.32
2019-03-18T14:30:47.842Z,17.27
2019-03-18T14:33:19.744Z,17.26
2019-03-18T14:35:50.767Z,17.22
2019-03-18T14:38:22.833Z,17.17
2019-03-18T14:40:54.113Z,17.12
2019-03-18T14:43:25.148Z,17.10
2019-03-18T14:45:56.298Z,17.02
2019-03-18T14:48:27.229Z,17.03
2019-03-18T14:50:58.401Z,16.99
2019-03-18T14:53:29.628Z,16.94
2019-03-18T14:56:00.736Z,16.86
2019-03-18T14:58:31.756Z,16.79
2019-03-18T15:01:02.834Z,16.74
2019-03-18T15:03:33.753Z,16.68
2019-03-18T15:06:04.844Z,16.62
2019-03-18T15:08:35.836Z,16.57
2019-03-18T15:11:06.845Z,16.50
2019-03-18T15:13:37.781Z,16.46
2019-03-18T15:16:08.742Z,16.43
2019-03-18T15:18:39.687Z,16.45
2019-03-18T15:21:10.659Z,16.37
2019-03-18T15:23:41.603Z,16.31
2019-03-18T15:26:12.643Z,16.23
2019-03-18T15:28:43.580Z,16.18
2019-03-18T15:31:14.701Z,16.15
2019-03-18T15:33:46.474Z,16.12
2019-03-18T15:36:17.436Z,16.07
2019-03-18T15:38:48.381Z,16.01
2019-03-18T15:41:19.651Z,15.96
2019-03-18T15:43:50.568Z,15.89
2019-03-18T15:46:21.831Z,15.82
2019-03-18T15:48:53.123Z,15.80
2019-03-18T15:51:24.381Z,15.81
2019-03-18T15:53:55.483Z,15.78
2019-03-18T15:56:26.795Z,15.74
2019-03-18T15:58:57.822Z,15.73
2019-03-18T16:01:28.951Z,15.64
2019-03-18T16:04:00.061Z,15.65
2019-03-18T16:06:31.350Z,15.65
2019-03-18T16:09:02.351Z,15.57
2019-03-18T16:11:33.411Z,15.54
2019-03-18T16:14:04.423Z,15.47
2019-03-18T16:16:36.505Z,15.55
2019-03-18T16:19:07.629Z,15.55
2019-03-18T16:21:38.596Z,15.53
2019-03-18T16:24:09.544Z,15.49
2019-03-18T16:26:40.642Z,15.50
2019-03-18T16:31:41.423Z,15.45
2019-03-18T16:34:13.262Z,15.41
2019-03-18T16:36:44.231Z,15.36
2019-03-18T16:39:15.158Z,15.33
2019-03-18T16:41:46.179Z,15.27
2019-03-18T16:44:17.189Z,15.26
2019-03-18T16:46:48.308Z,15.24
2019-03-18T16:49:19.283Z,15.17
2019-03-18T16:51:50.326Z,15.08
2019-03-18T16:54:21.479Z,14.98
2019-03-18T16:56:52.519Z,14.96
2019-03-18T16:59:23.582Z,14.92
2019-03-18T17:01:54.620Z,14.92
2019-03-18T17:04:25.616Z,14.93
2019-03-18T17:06:58.140Z,14.84
2019-03-18T17:09:29.836Z,14.81
2019-03-18T17:12:00.941Z,14.76
2019-03-18T17:14:32.025Z,14.77
2019-03-18T17:17:02.997Z,14.68
2019-03-18T17:19:33.999Z,14.67
2019-03-18T17:22:05.032Z,14.60
2019-03-18T17:24:35.996Z,14.57
2019-03-18T17:27:06.992Z,14.53
2019-03-18T17:29:37.950Z,14.47
2019-03-18T17:32:08.911Z,14.40
2019-03-18T17:34:40.842Z,14.32
2019-03-18T17:37:11.916Z,14.27
2019-03-18T17:39:42.964Z,14.21
2019-03-18T17:42:13.964Z,14.16
2019-03-18T17:44:44.948Z,14.14
2019-03-18T17:47:15.911Z,14.07
2019-03-18T17:49:46.916Z,14.01
2019-03-18T17:52:18.028Z,13.94
2019-03-18T17:54:49.045Z,13.93
2019-03-18T17:57:20.092Z,13.87
2019-03-18T17:59:51.225Z,13.85
2019-03-18T18:02:22.222Z,13.78
2019-03-18T18:05:02.421Z,13.68
2019-03-18T18:07:26.050Z,13.78
2019-03-18T18:09:57.002Z,13.65
2019-03-18T18:12:28.161Z,13.54
2019-03-18T18:14:59.210Z,13.48
2019-03-18T18:17:30.194Z,13.45
2019-03-18T18:20:01.179Z,13.43
2019-03-18T18:22:32.240Z,13.39
2019-03-18T18:25:03.429Z,13.40
2019-03-18T18:27:34.513Z,13.35
2019-03-18T18:30:13.977Z,13.39
2019-03-18T18:32:45.034Z,13.32
2019-03-18T18:35:16.971Z,13.19
2019-03-18T18:37:47.987Z,13.10
2019-03-18T18:40:31.834Z,13.04
2019-03-18T18:43:02.206Z,12.92
2019-03-18T18:48:02.849Z,12.92
2019-03-18T18:50:33.776Z,12.98
2019-03-18T18:53:04.867Z,12.94
2019-03-18T18:55:35.841Z,12.95
2019-03-18T18:58:07.081Z,12.90
2019-03-18T19:00:38.006Z,12.88
2019-03-18T19:03:09.046Z,12.82
2019-03-18T19:05:40.088Z,12.76
2019-03-18T19:08:11.081Z,12.73
2019-03-18T19:10:42.124Z,12.71
2019-03-18T19:13:13.068Z,12.62
2019-03-18T19:15:44.310Z,12.59
2019-03-18T19:18:15.348Z,12.55
2019-03-18T19:20:46.265Z,12.54
2019-03-18T19:23:17.242Z,12.48
2019-03-18T19:25:48.275Z,12.43
2019-03-18T19:28:19.362Z,12.34
2019-03-18T19:30:50.293Z,12.31
2019-03-18T19:33:21.374Z,12.26
2019-03-18T19:35:53.372Z,12.25
2019-03-18T19:38:24.352Z,12.18
2019-03-18T19:40:55.298Z,12.17
2019-03-18T19:43:26.860Z,12.11
2019-03-18T19:45:58.442Z,12.02
2019-03-18T19:48:29.839Z,11.99
2019-03-18T19:51:00.962Z,11.94
2019-03-18T19:53:33.129Z,11.93
2019-03-18T19:56:04.116Z,11.85
2019-03-18T19:58:35.225Z,11.82
2019-03-18T20:01:06.218Z,11.80
2019-03-18T20:03:37.882Z,11.75
2019-03-18T20:06:12.820Z,11.74
2019-03-18T20:08:44.028Z,11.70
2019-03-18T20:11:15.036Z,11.66
2019-03-18T20:13:46.118Z,11.61
2019-03-18T20:16:17.116Z,11.62
2019-03-18T20:18:50.084Z,11.56
2019-03-18T20:21:22.651Z,11.56
2019-03-18T20:24:00.660Z,11.44
2019-03-18T20:26:26.518Z,11.43
2019-03-18T20:28:57.407Z,11.37
2019-03-18T20:31:29.277Z,11.35
2019-03-18T20:34:00.345Z,11.28
2019-03-18T20:36:32.281Z,11.27
2019-03-18T20:39:04.225Z,11.26
2019-03-18T20:41:35.326Z,11.18
2019-03-18T20:44:06.399Z,11.19
2019-03-18T20:46:39.968Z,11.12
2019-03-18T20:49:11.018Z,11.06
2019-03-18T20:51:42.434Z,11.03
2019-03-18T20:54:13.614Z,11.01
2019-03-18T20:56:46.792Z,10.98
2019-03-18T20:59:17.738Z,10.92
2019-03-18T21:01:48.872Z,10.87
2019-03-18T21:04:20.873Z,10.81
2019-03-18T21:06:51.904Z,10.77
2019-03-18T21:09:25.879Z,10.72
2019-03-18T21:11:57.932Z,10.71
2019-03-18T21:14:29.636Z,10.65
2019-03-18T21:17:00.734Z,10.64
2019-03-18T21:19:35.592Z,10.63
2019-03-18T21:22:07.009Z,10.57
2019-03-18T21:24:38.138Z,10.48
2019-03-18T21:27:09.223Z,10.50
2019-03-18T21:29:40.554Z,10.45
2019-03-18T21:32:18.718Z,10.46
2019-03-18T21:34:49.900Z,10.45
2019-03-18T21:37:21.739Z,10.38
2019-03-18T21:39:52.830Z,10.32
2019-03-18T21:42:23.969Z,10.29
2019-03-18T21:44:55.212Z,10.26
2019-03-18T21:47:27.024Z,10.19
2019-03-18T21:49:58.056Z,10.22
2019-03-18T21:52:28.951Z,10.15
2019-03-18T21:55:00.118Z,10.15
2019-03-18T21:57:32.092Z,10.10
2019-03-18T22:00:04.816Z,10.08
2019-03-18T22:02:35.967Z,10.00
2019-03-18T22:05:07.161Z,9.99
2019-03-18T22:07:38.271Z,9.92
2019-03-18T22:10:13.604Z,9.89
2019-03-18T22:12:44.512Z,9.90
2019-03-18T22:15:22.215Z,9.81
2019-03-18T22:17:53.166Z,9.70
2019-03-18T22:20:24.180Z,9.64
2019-03-18T22:22:55.126Z,9.64
2019-03-18T22:25:26.195Z,9.58
2019-03-18T22:27:57.099Z,9.52
2019-03-18T22:30:28.028Z,9.55
2019-03-18T22:32:58.934Z,9.48
2019-03-18T22:35:29.887Z,9.46
2019-03-18T22:38:03.372Z,9.46
2019-03-18T22:40:34.331Z,9.43
2019-03-18T22:43:05.369Z,9.40
2019-03-18T22:45:36.385Z,9.38
2019-03-18T22:48:07.319Z,9.36
2019-03-18T22:50:38.354Z,9.29
2019-03-18T22:53:09.212Z,9.28
2019-03-18T22:55:42.506Z,9.25
2019-03-18T22:58:13.439Z,9.21
2019-03-18T23:00:48.745Z,9.23
2019-03-18T23:03:23.112Z,9.18
2019-03-18T23:05:54.409Z,9.18
2019-03-18T23:08:26.893Z,9.18
2019-03-18T23:11:03.603Z,9.13
2019-03-18T23:13:35.689Z,9.10
2019-03-18T23:16:08.749Z,9.07
2019-03-18T23:18:41.271Z,9.05
2019-03-18T23:21:12.151Z,9.06
2019-03-18T23:23:43.177Z,8.97
2019-03-18T23:26:14.233Z,9.02
2019-03-18T23:28:45.049Z,8.96
2019-03-18T23:31:15.943Z,9.01
2019-03-18T23:33:46.847Z,8.88
2019-03-18T23:36:20.555Z,8.93
2019-03-18T23:38:52.193Z,8.89
2019-03-18T23:41:23.098Z,8.94
2019-03-18T23:43:53.974Z,8.90
2019-03-18T23:46:24.929Z,8.90
2019-03-18T23:48:55.712Z,8.85
2019-03-18T23:51:26.562Z,8.83
2019-03-18T23:53:58.491Z,8.74
2019-03-18T23:56:29.387Z,8.76
2019-03-18T23:59:00.266Z,8.73
